createdAt,value
2022-12-17T00:00:36.429Z,21.80
2022-12-17T00:03:42.397Z,26.23
2022-12-17T00:06:46.883Z,19.40
2022-12-17T00:09:50.898Z,18.27
2022-12-17T00:12:54.055Z,21.00
2022-12-17T00:16:00.874Z,23.33
2022-12-17T00:19:06.544Z,19.47
2022-12-17T00:22:10.638Z,15.97
2022-12-17T00:25:14.683Z,18.90
2022-12-17T00:28:18.613Z,22.87
2022-12-17T00:31:22.815Z,16.70
2022-12-17T00:34:28.290Z,19.70
2022-12-17T00:37:32.247Z,19.63
2022-12-17T00:40:36.797Z,21.93
2022-12-17T00:43:40.738Z,15.73
2022-12-17T00:46:44.827Z,20.03
2022-12-17T00:49:50.316Z,16.57
2022-12-17T00:52:54.278Z,14.73
2022-12-17T00:56:00.935Z,18.10
2022-12-17T00:59:05.146Z,17.27
2022-12-17T01:02:09.334Z,19.50
2022-12-17T01:05:15.512Z,15.80
2022-12-17T01:08:26.528Z,23.27
2022-12-17T01:11:30.526Z,13.80
2022-12-17T01:14:34.586Z,15.97
2022-12-17T01:17:38.459Z,15.07
2022-12-17T01:20:43.841Z,16.97
2022-12-17T01:23:47.857Z,18.77
2022-12-17T01:26:51.730Z,16.83
2022-12-17T01:29:55.666Z,18.77
2022-12-17T01:32:59.673Z,18.23
2022-12-17T01:36:05.378Z,16.20
2022-12-17T01:39:09.265Z,17.33
2022-12-17T01:42:13.183Z,18.87
2022-12-17T01:45:17.370Z,18.47
2022-12-17T01:48:24.284Z,13.87
2022-12-17T01:51:29.770Z,16.57
2022-12-17T01:54:34.262Z,17.43
2022-12-17T01:57:38.203Z,19.17
2022-12-17T02:00:42.243Z,17.73
2022-12-17T02:03:46.078Z,15.17
2022-12-17T02:07:08.139Z,17.43
2022-12-17T02:10:21.045Z,14.73
2022-12-17T02:13:31.650Z,17.63
2022-12-17T02:16:41.220Z,13.00
2022-12-17T02:19:58.418Z,18.80
2022-12-17T02:23:18.272Z,14.63
2022-12-17T02:26:28.731Z,14.60
2022-12-17T02:29:35.213Z,14.03
2022-12-17T02:32:40.635Z,13.20
2022-12-17T02:35:49.678Z,14.63
2022-12-17T02:38:53.629Z,14.47
2022-12-17T02:42:04.682Z,15.93
2022-12-17T02:45:10.581Z,17.87
2022-12-17T02:48:14.950Z,14.47
2022-12-17T02:51:19.471Z,14.60
2022-12-17T02:54:38.396Z,16.27
2022-12-17T02:57:44.077Z,13.27
2022-12-17T03:00:50.430Z,15.13
2022-12-17T03:03:54.279Z,16.23
2022-12-17T03:06:58.406Z,14.23
2022-12-17T03:10:02.284Z,16.90
2022-12-17T03:13:06.203Z,18.43
2022-12-17T03:16:23.562Z,14.77
2022-12-17T03:19:28.383Z,14.83
2022-12-17T03:22:32.243Z,12.30
2022-12-17T03:25:36.735Z,13.33
2022-12-17T03:28:40.718Z,13.47
2022-12-17T03:31:46.308Z,16.37
2022-12-17T03:34:50.292Z,13.63
2022-12-17T03:37:54.239Z,15.63
2022-12-17T03:40:58.187Z,13.93
2022-12-17T03:44:02.616Z,14.83
2022-12-17T03:47:08.209Z,16.93
2022-12-17T03:50:12.254Z,14.97
2022-12-17T03:53:16.014Z,14.90
2022-12-17T03:56:20.031Z,13.83
2022-12-17T03:59:24.017Z,13.97
2022-12-17T04:02:29.801Z,16.93
2022-12-17T04:05:33.982Z,12.87
2022-12-17T04:08:37.815Z,14.83
2022-12-17T04:11:41.706Z,13.63
2022-12-17T04:14:45.626Z,15.37
2022-12-17T04:17:51.112Z,11.53
2022-12-17T04:20:55.200Z,14.67
2022-12-17T04:23:59.157Z,14.33
2022-12-17T04:27:02.956Z,15.90
2022-12-17T04:30:07.060Z,14.10
2022-12-17T04:33:12.605Z,14.10
2022-12-17T04:36:16.566Z,12.60
2022-12-17T04:39:20.781Z,13.93
2022-12-17T04:42:24.843Z,11.97
2022-12-17T04:45:29.291Z,10.97
2022-12-17T04:48:35.007Z,15.40
2022-12-17T04:51:39.075Z,12.03
2022-12-17T04:54:43.090Z,13.97
2022-12-17T04:57:46.985Z,13.77
2022-12-17T05:00:50.999Z,13.90
2022-12-17T05:03:56.662Z,14.10
2022-12-17T05:07:00.670Z,15.07
2022-12-17T05:10:04.356Z,11.73
2022-12-17T05:13:15.778Z,10.90
2022-12-17T05:16:20.434Z,11.80
2022-12-17T05:19:26.026Z,14.93
2022-12-17T05:22:30.146Z,14.10
2022-12-17T05:25:34.538Z,11.57
2022-12-17T05:28:38.582Z,13.30
2022-12-17T05:31:42.784Z,12.17
2022-12-17T05:34:48.298Z,13.60
2022-12-17T05:37:52.217Z,13.67
2022-12-17T05:40:56.262Z,13.10
2022-12-17T05:44:00.554Z,13.37
2022-12-17T05:47:04.552Z,14.77
2022-12-17T05:50:10.121Z,11.97
2022-12-17T05:53:20.110Z,11.57
2022-12-17T05:56:25.646Z,12.60
2022-12-17T05:59:29.651Z,11.27
2022-12-17T06:02:34.267Z,13.50
2022-12-17T06:05:54.268Z,12.10
2022-12-17T06:08:58.469Z,12.07
2022-12-17T06:12:03.195Z,15.47
2022-12-17T06:15:07.453Z,11.10
2022-12-17T06:18:16.672Z,13.60
2022-12-17T06:21:22.600Z,10.80
2022-12-17T06:24:27.035Z,11.47
2022-12-17T06:27:31.134Z,9.50
2022-12-17T06:30:35.199Z,13.50
2022-12-17T06:33:39.542Z,12.73
2022-12-17T06:36:44.994Z,10.83
2022-12-17T06:39:48.991Z,19.50
2022-12-17T06:42:53.104Z,11.17
2022-12-17T06:45:56.957Z,13.70
2022-12-17T06:49:01.014Z,11.13
2022-12-17T06:52:06.556Z,11.93
2022-12-17T06:55:10.462Z,10.03
2022-12-17T06:58:15.331Z,11.33
2022-12-17T07:01:19.378Z,10.03
2022-12-17T07:04:23.713Z,17.53
2022-12-17T07:07:29.288Z,16.33
2022-12-17T07:10:33.334Z,14.37
2022-12-17T07:13:37.696Z,18.38
2022-12-17T07:16:41.962Z,12.57
2022-12-17T07:19:46.049Z,12.93
2022-12-17T07:22:51.754Z,9.57
2022-12-17T07:25:55.726Z,13.73
2022-12-17T07:28:59.870Z,12.87
2022-12-17T07:32:03.186Z,14.57
2022-12-17T07:35:07.391Z,11.47
2022-12-17T07:38:18.913Z,11.27
2022-12-17T07:41:23.179Z,12.50
2022-12-17T07:44:27.145Z,13.30
2022-12-17T07:47:31.136Z,14.93
2022-12-17T07:50:35.109Z,12.77
2022-12-17T07:53:40.814Z,16.63
2022-12-17T07:56:45.377Z,12.67
2022-12-17T07:59:49.415Z,11.50
2022-12-17T08:02:53.589Z,12.37
2022-12-17T08:05:57.551Z,12.90
2022-12-17T08:09:03.199Z,14.23
2022-12-17T08:12:07.272Z,11.17
2022-12-17T08:15:10.966Z,14.57
2022-12-17T08:18:24.344Z,15.83
2022-12-17T08:21:30.478Z,13.90
2022-12-17T08:24:35.950Z,13.47
2022-12-17T08:27:40.151Z,12.03
2022-12-17T08:30:44.133Z,16.60
2022-12-17T08:33:48.101Z,10.67
2022-12-17T08:36:52.158Z,19.30
2022-12-17T08:39:57.673Z,16.07
2022-12-17T08:43:01.638Z,13.07
2022-12-17T08:46:07.273Z,14.70
2022-12-17T08:49:11.336Z,16.67
2022-12-17T08:52:15.241Z,14.00
2022-12-17T08:55:23.097Z,15.43
2022-12-17T08:58:28.055Z,14.50
2022-12-17T09:01:32.399Z,13.17
2022-12-17T09:04:36.528Z,15.73
2022-12-17T09:07:41.495Z,15.60
2022-12-17T09:10:47.305Z,16.20
2022-12-17T09:13:51.774Z,18.90
2022-12-17T09:16:55.909Z,19.17
2022-12-17T09:19:59.892Z,22.13
2022-12-17T09:23:03.998Z,17.47
2022-12-17T09:26:13.242Z,18.60
2022-12-17T09:29:17.249Z,18.53
2022-12-17T09:32:21.858Z,21.33
2022-12-17T09:35:26.218Z,19.30
2022-12-17T09:38:31.423Z,21.63
2022-12-17T09:41:55.539Z,18.60
2022-12-17T09:45:06.027Z,23.77
2022-12-17T09:48:18.008Z,17.77
2022-12-17T09:51:23.003Z,19.37
2022-12-17T09:54:38.247Z,20.70
2022-12-17T09:57:46.150Z,19.87
2022-12-17T10:00:50.460Z,19.77
2022-12-17T10:03:56.108Z,15.37
2022-12-17T10:07:01.243Z,20.53
2022-12-17T10:10:05.992Z,20.03
2022-12-17T10:13:11.868Z,26.03
2022-12-17T10:16:16.608Z,19.57
2022-12-17T10:19:20.500Z,18.73
2022-12-17T10:22:26.547Z,21.37
2022-12-17T10:25:35.092Z,16.27
2022-12-17T10:28:42.245Z,15.17
2022-12-17T10:31:49.023Z,19.73
2022-12-17T10:34:57.403Z,17.00
2022-12-17T10:38:03.323Z,19.23
2022-12-17T10:41:07.459Z,18.27
2022-12-17T10:44:21.437Z,19.30
2022-12-17T10:47:30.364Z,22.37
2022-12-17T10:50:36.614Z,18.43
2022-12-17T10:53:43.773Z,21.33
2022-12-17T10:56:47.938Z,25.30
2022-12-17T10:59:56.906Z,15.90
2022-12-17T11:03:07.262Z,19.37
2022-12-17T11:06:13.655Z,17.80
2022-12-17T11:09:20.434Z,19.53
2022-12-17T11:12:30.908Z,21.43
2022-12-17T11:15:41.981Z,18.53
2022-12-17T11:18:51.411Z,18.97
2022-12-17T11:21:59.651Z,18.70
2022-12-17T11:25:11.031Z,17.97
2022-12-17T11:28:23.271Z,17.60
2022-12-17T11:31:48.409Z,18.90
2022-12-17T11:35:19.166Z,15.60
2022-12-17T11:38:35.814Z,16.23
2022-12-17T11:41:53.061Z,18.07
2022-12-17T11:45:06.570Z,14.83
2022-12-17T11:48:17.776Z,18.30
2022-12-17T11:51:30.474Z,23.00
2022-12-17T11:54:41.072Z,16.10
2022-12-17T11:57:52.711Z,20.23
2022-12-17T12:01:06.554Z,17.23
2022-12-17T12:04:23.609Z,17.57
2022-12-17T12:07:49.602Z,16.67
2022-12-17T12:11:00.914Z,17.53
2022-12-17T12:14:15.120Z,14.87
2022-12-17T12:17:36.483Z,17.53
2022-12-17T12:20:57.602Z,16.07
2022-12-17T12:24:09.793Z,18.77
2022-12-17T12:27:27.206Z,15.13
2022-12-17T12:30:35.249Z,16.13
2022-12-17T12:33:49.590Z,15.53
2022-12-17T12:36:57.834Z,13.20
2022-12-17T12:40:08.000Z,12.60
2022-12-17T12:43:19.281Z,14.77
2022-12-17T12:46:31.505Z,14.20
2022-12-17T12:49:44.615Z,11.73
2022-12-17T12:52:50.797Z,16.70
2022-12-17T12:55:56.472Z,13.90
2022-12-17T12:59:01.120Z,15.70
2022-12-17T13:02:14.219Z,12.10
2022-12-17T13:05:19.143Z,15.30
2022-12-17T13:08:20.996Z,16.83
2022-12-17T13:11:29.510Z,17.53
2022-12-17T13:14:20.575Z,17.70
2022-12-17T13:17:21.547Z,18.57
2022-12-17T13:20:33.069Z,15.30
2022-12-17T13:23:31.466Z,19.23
2022-12-17T13:26:24.118Z,19.50
2022-12-17T13:29:30.781Z,18.13
2022-12-17T13:32:24.540Z,20.10
2022-12-17T13:35:22.150Z,20.37
2022-12-17T13:38:18.085Z,18.57
2022-12-17T13:41:10.926Z,16.17
2022-12-17T13:44:00.253Z,18.33
2022-12-17T13:46:49.061Z,17.83
2022-12-17T13:49:35.816Z,23.23
2022-12-17T13:52:25.213Z,19.47
2022-12-17T13:55:19.617Z,17.80
2022-12-17T13:58:07.694Z,20.30
2022-12-17T14:01:05.991Z,17.83
2022-12-17T14:04:06.299Z,21.53
2022-12-17T14:06:54.426Z,16.57
2022-12-17T14:09:44.827Z,17.17
2022-12-17T14:12:34.770Z,16.93
2022-12-17T14:15:26.867Z,14.00
2022-12-17T14:18:19.449Z,17.47
2022-12-17T14:21:07.247Z,17.60
2022-12-17T14:23:54.676Z,18.57
2022-12-17T14:26:50.170Z,23.47
2022-12-17T14:29:47.447Z,16.27
2022-12-17T14:32:37.726Z,16.23
2022-12-17T14:35:27.397Z,15.57
2022-12-17T14:38:37.100Z,17.93
2022-12-17T14:41:41.936Z,15.27
2022-12-17T14:44:30.931Z,15.00
2022-12-17T14:47:21.050Z,15.47
2022-12-17T14:50:29.940Z,20.30
2022-12-17T14:53:28.350Z,16.97
2022-12-17T14:56:23.326Z,19.30
2022-12-17T14:59:27.263Z,22.57
2022-12-17T15:02:23.832Z,18.37
2022-12-17T15:05:15.935Z,14.90
2022-12-17T15:08:02.410Z,17.03
2022-12-17T15:10:48.921Z,14.67
2022-12-17T15:13:35.738Z,13.57
2022-12-17T15:16:22.321Z,15.40
2022-12-17T15:19:08.673Z,17.03
2022-12-17T15:21:56.499Z,20.53
2022-12-17T15:24:43.578Z,16.57
2022-12-17T15:27:30.270Z,15.10
2022-12-17T15:30:18.150Z,14.10
2022-12-17T15:33:04.902Z,13.93
2022-12-17T15:35:51.610Z,22.73
2022-12-17T15:38:39.839Z,17.67
2022-12-17T15:41:44.465Z,16.10
2022-12-17T15:44:31.405Z,15.47
2022-12-17T15:47:17.877Z,15.37
2022-12-17T15:50:04.776Z,17.27
2022-12-17T15:52:51.824Z,15.73
2022-12-17T15:55:40.154Z,16.47
2022-12-17T15:58:26.914Z,17.87
2022-12-17T16:01:13.535Z,18.13
2022-12-17T16:04:00.614Z,21.53
2022-12-17T16:06:47.013Z,16.97
2022-12-17T16:09:33.562Z,18.13
2022-12-17T16:12:21.619Z,17.97
2022-12-17T16:15:10.075Z,17.93
2022-12-17T16:17:56.681Z,20.27
2022-12-17T16:20:44.063Z,17.03
2022-12-17T16:23:30.547Z,21.70
2022-12-17T16:26:17.232Z,18.23
2022-12-17T16:29:05.649Z,16.30
2022-12-17T16:31:52.227Z,16.70
2022-12-17T16:34:38.881Z,17.67
2022-12-17T16:37:25.621Z,15.50
2022-12-17T16:40:13.082Z,18.50
2022-12-17T16:42:59.495Z,17.93
2022-12-17T16:45:50.929Z,18.17
2022-12-17T16:48:39.590Z,17.90
2022-12-17T16:51:29.616Z,18.67
2022-12-17T16:54:18.775Z,21.23
2022-12-17T16:57:05.249Z,17.93
2022-12-17T16:59:51.602Z,16.30
2022-12-17T17:02:39.450Z,17.17
2022-12-17T17:05:26.097Z,16.43
2022-12-17T17:08:12.578Z,16.03
2022-12-17T17:10:59.176Z,15.20
2022-12-17T17:13:46.086Z,14.47
2022-12-17T17:16:34.148Z,17.37
2022-12-17T17:19:22.154Z,19.00
2022-12-17T17:22:08.998Z,19.87
2022-12-17T17:24:55.690Z,21.20
2022-12-17T17:27:43.789Z,22.27
2022-12-17T17:30:30.387Z,21.50
2022-12-17T17:33:16.989Z,21.33
2022-12-17T17:36:09.767Z,19.23
2022-12-17T17:38:57.994Z,19.53
2022-12-17T17:41:44.895Z,22.10
2022-12-17T17:44:31.586Z,20.73
2022-12-17T17:47:17.962Z,24.00
2022-12-17T17:50:04.615Z,22.70
2022-12-17T17:52:52.543Z,18.33
2022-12-17T17:55:39.327Z,17.80
2022-12-17T17:58:25.836Z,18.53
2022-12-17T18:01:14.397Z,27.70
2022-12-17T18:04:03.001Z,29.90
2022-12-17T18:07:16.495Z,25.03
2022-12-17T18:09:59.750Z,22.97
2022-12-17T18:13:03.617Z,20.00
2022-12-17T18:15:50.610Z,18.00
2022-12-17T18:18:37.970Z,18.30
2022-12-17T18:21:25.520Z,17.00
2022-12-17T18:24:15.429Z,20.10
2022-12-17T18:27:03.579Z,17.70
2022-12-17T18:29:50.453Z,18.70
2022-12-17T18:32:36.799Z,20.03
2022-12-17T18:35:23.283Z,17.77
2022-12-17T18:38:09.736Z,18.33
2022-12-17T18:40:56.144Z,16.63
2022-12-17T18:43:42.985Z,19.80
2022-12-17T18:46:31.031Z,18.63
2022-12-17T18:49:19.837Z,18.70
2022-12-17T18:52:09.354Z,23.33
2022-12-17T18:54:58.534Z,19.53
2022-12-17T18:57:44.939Z,21.13
2022-12-17T19:00:32.733Z,20.43
2022-12-17T19:03:19.401Z,17.27
2022-12-17T19:06:07.145Z,23.43
2022-12-17T19:08:53.941Z,18.70
2022-12-17T19:11:43.531Z,21.17
2022-12-17T19:14:30.344Z,17.53
2022-12-17T19:17:18.227Z,19.73
2022-12-17T19:20:05.462Z,17.80
2022-12-17T19:22:51.846Z,15.73
2022-12-17T19:25:38.427Z,18.83
2022-12-17T19:28:24.953Z,24.77
2022-12-17T19:31:12.427Z,20.33
2022-12-17T19:34:02.699Z,20.80
2022-12-17T19:36:49.497Z,19.53
2022-12-17T19:39:35.908Z,16.17
2022-12-17T19:42:32.088Z,17.83
2022-12-17T19:45:23.298Z,16.37
2022-12-17T19:48:14.470Z,21.37
2022-12-17T19:51:03.169Z,16.63
2022-12-17T19:53:50.382Z,15.07
2022-12-17T19:56:37.730Z,18.23
2022-12-17T19:59:24.329Z,18.50
2022-12-17T20:02:11.449Z,19.27
2022-12-17T20:04:58.098Z,15.07
2022-12-17T20:07:45.972Z,16.40
2022-12-17T20:10:33.684Z,17.20
2022-12-17T20:13:20.102Z,19.97
2022-12-17T20:16:07.564Z,17.30
2022-12-17T20:18:54.382Z,19.97
2022-12-17T20:21:41.537Z,18.50
2022-12-17T20:24:31.879Z,17.97
2022-12-17T20:27:18.983Z,20.43
2022-12-17T20:30:07.230Z,20.57
2022-12-17T20:32:54.805Z,16.30
2022-12-17T20:35:41.757Z,18.43
2022-12-17T20:38:28.313Z,18.17
2022-12-17T20:41:18.643Z,23.17
2022-12-17T20:44:07.053Z,14.70
2022-12-17T20:46:53.541Z,15.90
2022-12-17T20:49:40.178Z,17.43
2022-12-17T20:52:26.598Z,21.23
2022-12-17T20:55:13.023Z,17.33
2022-12-17T20:58:00.861Z,18.27
2022-12-17T21:00:47.386Z,14.80
2022-12-17T21:03:34.300Z,17.13
2022-12-17T21:06:22.555Z,16.67
2022-12-17T21:09:10.344Z,13.07
2022-12-17T21:11:56.739Z,14.47
2022-12-17T21:14:44.455Z,16.87
2022-12-17T21:17:31.311Z,18.23
2022-12-17T21:20:17.833Z,20.60
2022-12-17T21:23:05.099Z,17.27
2022-12-17T21:25:59.903Z,17.53
2022-12-17T21:28:48.883Z,20.03
2022-12-17T21:31:40.561Z,17.87
2022-12-17T21:34:29.280Z,16.00
2022-12-17T21:37:16.369Z,14.13
2022-12-17T21:40:02.985Z,13.13
2022-12-17T21:43:04.524Z,14.27
2022-12-17T21:45:51.061Z,12.80
2022-12-17T21:48:42.398Z,17.00
2022-12-17T21:51:30.379Z,12.93
2022-12-17T21:54:19.831Z,15.23
2022-12-17T21:57:07.071Z,15.60
2022-12-17T21:59:53.435Z,12.23
2022-12-17T22:02:40.910Z,10.57
2022-12-17T22:05:29.601Z,11.50
2022-12-17T22:08:16.362Z,14.60
2022-12-17T22:11:11.044Z,12.93
2022-12-17T22:14:07.277Z,10.30
2022-12-17T22:16:55.056Z,12.30
2022-12-17T22:19:41.620Z,8.00
2022-12-17T22:22:30.268Z,13.03
2022-12-17T22:25:17.348Z,11.10
2022-12-17T22:28:04.453Z,11.53
2022-12-17T22:31:08.233Z,12.17
2022-12-17T22:34:31.476Z,12.20
2022-12-17T22:39:47.171Z,10.47
2022-12-17T22:44:34.649Z,12.30
2022-12-17T22:44:45.171Z,8.77
2022-12-17T22:46:36.543Z,8.53
2022-12-17T22:49:23.632Z,11.47
2022-12-17T22:52:10.337Z,15.17
2022-12-17T22:54:57.485Z,12.90
2022-12-17T22:57:45.938Z,12.33
2022-12-17T23:00:35.416Z,13.07
2022-12-17T23:03:21.962Z,12.97
2022-12-17T23:06:11.002Z,11.93
2022-12-17T23:08:59.040Z,12.73
2022-12-17T23:11:46.025Z,11.90
2022-12-17T23:14:34.057Z,9.03
2022-12-17T23:17:20.713Z,9.47
2022-12-17T23:20:08.047Z,10.87
2022-12-17T23:22:54.726Z,10.47
2022-12-17T23:25:41.357Z,8.00
2022-12-17T23:28:27.823Z,11.53
2022-12-17T23:31:17.621Z,9.37
2022-12-17T23:34:04.741Z,11.30
2022-12-17T23:36:51.546Z,8.20
2022-12-17T23:39:37.950Z,11.30
2022-12-17T23:42:24.846Z,10.37
2022-12-17T23:45:12.118Z,12.03
2022-12-17T23:47:59.992Z,8.40
2022-12-17T23:50:46.698Z,9.13
2022-12-17T23:53:34.131Z,9.27
2022-12-17T23:56:22.915Z,7.27
2022-12-17T23:59:10.323Z,8.67
